sensor_id;sensor_type;location;lat;lon;timestamp;P1;durP1;ratioP1;P2;durP2;ratioP2
16837;SDS011;19510;54.486;9.046;2024-03-08T00:00:41;15.03;;;8.60;;
16837;SDS011;19510;54.486;9.046;2024-03-08T00:03:08;15.87;;;8.90;;
16837;SDS011;19510;54.486;9.046;2024-03-08T00:05:39;15.60;;;7.93;;
16837;SDS011;19510;54.486;9.046;2024-03-08T00:08:09;18.80;;;8.30;;
16837;SDS011;19510;54.486;9.046;2024-03-08T00:10:35;13.60;;;7.20;;
16837;SDS011;19510;54.486;9.046;2024-03-08T00:13:12;17.67;;;7.77;;
16837;SDS011;19510;54.486;9.046;2024-03-08T00:15:46;13.00;;;8.27;;
16837;SDS011;19510;54.486;9.046;2024-03-08T00:18:15;14.47;;;7.53;;
16837;SDS011;19510;54.486;9.046;2024-03-08T00:20:41;17.57;;;8.60;;
16837;SDS011;19510;54.486;9.046;2024-03-08T00:23:08;14.47;;;8.00;;
16837;SDS011;19510;54.486;9.046;2024-03-08T00:25:36;15.93;;;7.37;;
16837;SDS011;19510;54.486;9.046;2024-03-08T02:02:35;10.83;;;5.40;;
16837;SDS011;19510;54.486;9.046;2024-03-08T02:05:02;9.63;;;5.23;;
16837;SDS011;19510;54.486;9.046;2024-03-08T02:07:30;10.10;;;5.83;;
16837;SDS011;19510;54.486;9.046;2024-03-08T02:09:56;11.13;;;5.20;;
16837;SDS011;19510;54.486;9.046;2024-03-08T02:12:22;9.57;;;4.63;;
16837;SDS011;19510;54.486;9.046;2024-03-08T02:14:48;9.30;;;5.17;;
16837;SDS011;19510;54.486;9.046;2024-03-08T02:17:14;9.53;;;4.70;;
16837;SDS011;19510;54.486;9.046;2024-03-08T02:19:39;10.30;;;5.20;;
16837;SDS011;19510;54.486;9.046;2024-03-08T02:22:05;8.80;;;4.90;;
16837;SDS011;19510;54.486;9.046;2024-03-08T02:24:32;8.97;;;4.97;;
16837;SDS011;19510;54.486;9.046;2024-03-08T02:26:58;8.13;;;4.77;;
16837;SDS011;19510;54.486;9.046;2024-03-08T02:29:24;10.83;;;5.43;;
16837;SDS011;19510;54.486;9.046;2024-03-08T02:31:52;9.13;;;5.47;;
16837;SDS011;19510;54.486;9.046;2024-03-08T02:34:18;7.87;;;4.73;;
16837;SDS011;19510;54.486;9.046;2024-03-08T02:36:45;12.50;;;5.27;;
16837;SDS011;19510;54.486;9.046;2024-03-08T02:39:11;11.43;;;5.17;;
16837;SDS011;19510;54.486;9.046;2024-03-08T02:41:37;10.07;;;4.67;;
16837;SDS011;19510;54.486;9.046;2024-03-08T02:44:03;9.47;;;5.23;;
16837;SDS011;19510;54.486;9.046;2024-03-08T02:46:29;10.93;;;5.53;;
16837;SDS011;19510;54.486;9.046;2024-03-08T02:48:55;9.67;;;5.50;;
16837;SDS011;19510;54.486;9.046;2024-03-08T02:51:20;10.67;;;5.13;;
16837;SDS011;19510;54.486;9.046;2024-03-08T02:53:46;10.87;;;5.53;;
16837;SDS011;19510;54.486;9.046;2024-03-08T02:56:14;10.23;;;5.53;;
16837;SDS011;19510;54.486;9.046;2024-03-08T02:58:41;10.53;;;5.03;;
16837;SDS011;19510;54.486;9.046;2024-03-08T03:01:07;9.43;;;5.33;;
16837;SDS011;19510;54.486;9.046;2024-03-08T03:03:35;12.07;;;5.80;;
16837;SDS011;19510;54.486;9.046;2024-03-08T03:06:01;9.37;;;4.93;;
16837;SDS011;19510;54.486;9.046;2024-03-08T03:08:27;10.03;;;5.30;;
16837;SDS011;19510;54.486;9.046;2024-03-08T03:10:53;13.67;;;6.13;;
16837;SDS011;19510;54.486;9.046;2024-03-08T03:13:21;13.77;;;5.80;;
16837;SDS011;19510;54.486;9.046;2024-03-08T03:15:47;12.63;;;6.30;;
16837;SDS011;19510;54.486;9.046;2024-03-08T03:18:13;11.27;;;5.77;;
16837;SDS011;19510;54.486;9.046;2024-03-08T03:20:39;12.57;;;5.93;;
16837;SDS011;19510;54.486;9.046;2024-03-08T03:23:08;13.17;;;5.53;;
16837;SDS011;19510;54.486;9.046;2024-03-08T03:25:34;11.87;;;6.00;;
16837;SDS011;19510;54.486;9.046;2024-03-08T03:28:03;12.93;;;6.60;;
16837;SDS011;19510;54.486;9.046;2024-03-08T03:30:30;11.50;;;5.40;;
16837;SDS011;19510;54.486;9.046;2024-03-08T03:32:59;8.63;;;5.40;;
16837;SDS011;19510;54.486;9.046;2024-03-08T03:35:26;10.37;;;5.43;;
16837;SDS011;19510;54.486;9.046;2024-03-08T03:37:54;10.57;;;5.93;;
16837;SDS011;19510;54.486;9.046;2024-03-08T03:40:35;10.77;;;5.83;;
16837;SDS011;19510;54.486;9.046;2024-03-08T03:43:02;10.50;;;5.60;;
16837;SDS011;19510;54.486;9.046;2024-03-08T03:45:28;10.73;;;5.53;;
16837;SDS011;19510;54.486;9.046;2024-03-08T03:47:54;10.10;;;5.43;;
16837;SDS011;19510;54.486;9.046;2024-03-08T03:50:21;13.23;;;5.80;;
16837;SDS011;19510;54.486;9.046;2024-03-08T03:52:48;11.67;;;5.20;;
16837;SDS011;19510;54.486;9.046;2024-03-08T03:55:14;11.43;;;5.60;;
16837;SDS011;19510;54.486;9.046;2024-03-08T03:57:40;11.27;;;5.67;;
16837;SDS011;19510;54.486;9.046;2024-03-08T04:00:07;12.13;;;6.17;;
16837;SDS011;19510;54.486;9.046;2024-03-08T04:02:39;9.17;;;5.60;;
16837;SDS011;19510;54.486;9.046;2024-03-08T04:05:15;14.43;;;6.67;;
16837;SDS011;19510;54.486;9.046;2024-03-08T04:07:41;12.47;;;5.57;;
16837;SDS011;19510;54.486;9.046;2024-03-08T04:10:07;14.23;;;5.73;;
16837;SDS011;19510;54.486;9.046;2024-03-08T04:12:34;10.47;;;6.20;;
16837;SDS011;19510;54.486;9.046;2024-03-08T04:15:00;12.73;;;5.67;;
16837;SDS011;19510;54.486;9.046;2024-03-08T04:36:21;11.00;;;6.40;;
16837;SDS011;19510;54.486;9.046;2024-03-08T04:38:51;11.27;;;6.10;;
16837;SDS011;19510;54.486;9.046;2024-03-08T04:41:25;14.90;;;6.87;;
16837;SDS011;19510;54.486;9.046;2024-03-08T04:44:03;13.23;;;6.20;;
16837;SDS011;19510;54.486;9.046;2024-03-08T04:46:28;17.13;;;6.90;;
16837;SDS011;19510;54.486;9.046;2024-03-08T04:48:57;17.83;;;6.97;;
16837;SDS011;19510;54.486;9.046;2024-03-08T04:51:25;14.63;;;6.70;;
16837;SDS011;19510;54.486;9.046;2024-03-08T04:53:53;15.53;;;6.60;;
16837;SDS011;19510;54.486;9.046;2024-03-08T04:56:26;12.70;;;6.70;;
16837;SDS011;19510;54.486;9.046;2024-03-08T04:59:00;13.97;;;6.83;;
16837;SDS011;19510;54.486;9.046;2024-03-08T05:01:27;35.97;;;7.60;;
16837;SDS011;19510;54.486;9.046;2024-03-08T05:03:52;13.93;;;6.20;;
16837;SDS011;19510;54.486;9.046;2024-03-08T05:06:20;13.17;;;6.77;;
16837;SDS011;19510;54.486;9.046;2024-03-08T05:08:46;15.73;;;7.07;;
16837;SDS011;19510;54.486;9.046;2024-03-08T05:11:11;14.97;;;7.07;;
16837;SDS011;19510;54.486;9.046;2024-03-08T05:13:39;17.43;;;7.33;;
16837;SDS011;19510;54.486;9.046;2024-03-08T05:16:05;14.07;;;8.17;;
16837;SDS011;19510;54.486;9.046;2024-03-08T05:18:34;14.93;;;7.73;;
16837;SDS011;19510;54.486;9.046;2024-03-08T05:21:01;14.30;;;8.20;;
16837;SDS011;19510;54.486;9.046;2024-03-08T05:23:28;15.60;;;7.83;;
16837;SDS011;19510;54.486;9.046;2024-03-08T05:25:55;16.20;;;8.37;;
16837;SDS011;19510;54.486;9.046;2024-03-08T05:28:20;18.77;;;9.13;;
16837;SDS011;19510;54.486;9.046;2024-03-08T05:30:46;16.83;;;8.10;;
16837;SDS011;19510;54.486;9.046;2024-03-08T05:33:12;23.17;;;9.57;;
16837;SDS011;19510;54.486;9.046;2024-03-08T05:35:39;17.63;;;9.30;;
16837;SDS011;19510;54.486;9.046;2024-03-08T05:38:05;16.53;;;9.63;;
16837;SDS011;19510;54.486;9.046;2024-03-08T05:40:32;17.13;;;9.13;;
16837;SDS011;19510;54.486;9.046;2024-03-08T05:43:00;19.27;;;9.93;;
16837;SDS011;19510;54.486;9.046;2024-03-08T05:45:28;24.50;;;10.00;;
16837;SDS011;19510;54.486;9.046;2024-03-08T05:47:54;18.23;;;10.13;;
16837;SDS011;19510;54.486;9.046;2024-03-08T05:50:20;23.13;;;11.30;;
16837;SDS011;19510;54.486;9.046;2024-03-08T05:52:45;24.50;;;12.07;;
16837;SDS011;19510;54.486;9.046;2024-03-08T05:55:12;28.10;;;12.03;;
16837;SDS011;19510;54.486;9.046;2024-03-08T05:57:39;29.20;;;12.93;;
16837;SDS011;19510;54.486;9.046;2024-03-08T06:00:07;26.13;;;13.63;;
16837;SDS011;19510;54.486;9.046;2024-03-08T06:02:34;25.60;;;12.87;;
16837;SDS011;19510;54.486;9.046;2024-03-08T06:05:05;30.53;;;13.50;;
16837;SDS011;19510;54.486;9.046;2024-03-08T06:07:37;26.17;;;13.13;;
16837;SDS011;19510;54.486;9.046;2024-03-08T06:10:06;30.90;;;13.97;;
16837;SDS011;19510;54.486;9.046;2024-03-08T06:12:35;27.93;;;14.10;;
16837;SDS011;19510;54.486;9.046;2024-03-08T06:15:08;30.90;;;14.80;;
16837;SDS011;19510;54.486;9.046;2024-03-08T06:17:35;29.87;;;14.57;;
16837;SDS011;19510;54.486;9.046;2024-03-08T06:20:03;28.13;;;14.30;;
16837;SDS011;19510;54.486;9.046;2024-03-08T06:22:35;31.23;;;14.90;;
16837;SDS011;19510;54.486;9.046;2024-03-08T06:25:06;32.47;;;15.33;;
16837;SDS011;19510;54.486;9.046;2024-03-08T06:27:32;32.10;;;15.67;;
16837;SDS011;19510;54.486;9.046;2024-03-08T06:29:59;31.10;;;14.67;;
16837;SDS011;19510;54.486;9.046;2024-03-08T06:32:27;26.87;;;13.97;;
16837;SDS011;19510;54.486;9.046;2024-03-08T06:34:53;31.90;;;16.07;;
16837;SDS011;19510;54.486;9.046;2024-03-08T06:37:19;30.23;;;14.37;;
16837;SDS011;19510;54.486;9.046;2024-03-08T06:39:47;30.77;;;14.33;;
16837;SDS011;19510;54.486;9.046;2024-03-08T06:42:13;27.77;;;14.10;;
16837;SDS011;19510;54.486;9.046;2024-03-08T06:44:39;32.13;;;14.07;;
16837;SDS011;19510;54.486;9.046;2024-03-08T06:47:13;34.70;;;15.57;;
16837;SDS011;19510;54.486;9.046;2024-03-08T06:49:41;27.77;;;14.30;;
16837;SDS011;19510;54.486;9.046;2024-03-08T06:52:08;28.20;;;14.70;;
16837;SDS011;19510;54.486;9.046;2024-03-08T06:54:34;25.63;;;13.37;;
16837;SDS011;19510;54.486;9.046;2024-03-08T06:57:03;30.47;;;14.00;;
16837;SDS011;19510;54.486;9.046;2024-03-08T06:59:30;29.60;;;14.23;;
16837;SDS011;19510;54.486;9.046;2024-03-08T07:01:56;27.87;;;13.90;;
16837;SDS011;19510;54.486;9.046;2024-03-08T07:04:24;26.10;;;13.53;;
16837;SDS011;19510;54.486;9.046;2024-03-08T07:06:55;28.57;;;13.93;;
16837;SDS011;19510;54.486;9.046;2024-03-08T07:09:21;26.80;;;13.33;;
16837;SDS011;19510;54.486;9.046;2024-03-08T07:11:47;30.23;;;14.20;;
16837;SDS011;19510;54.486;9.046;2024-03-08T07:14:18;34.50;;;14.63;;
16837;SDS011;19510;54.486;9.046;2024-03-08T07:16:43;29.67;;;14.30;;
16837;SDS011;19510;54.486;9.046;2024-03-08T07:19:09;29.03;;;13.67;;
16837;SDS011;19510;54.486;9.046;2024-03-08T07:21:35;28.00;;;14.03;;
16837;SDS011;19510;54.486;9.046;2024-03-08T07:24:01;29.27;;;14.03;;
16837;SDS011;19510;54.486;9.046;2024-03-08T07:26:26;30.30;;;13.23;;
16837;SDS011;19510;54.486;9.046;2024-03-08T07:28:52;34.70;;;14.47;;
16837;SDS011;19510;54.486;9.046;2024-03-08T07:31:22;27.80;;;14.20;;
16837;SDS011;19510;54.486;9.046;2024-03-08T07:33:53;30.13;;;14.00;;
16837;SDS011;19510;54.486;9.046;2024-03-08T07:36:19;25.17;;;13.93;;
16837;SDS011;19510;54.486;9.046;2024-03-08T07:38:44;25.53;;;13.80;;
16837;SDS011;19510;54.486;9.046;2024-03-08T07:41:14;29.07;;;13.77;;
16837;SDS011;19510;54.486;9.046;2024-03-08T07:43:41;28.00;;;13.27;;
16837;SDS011;19510;54.486;9.046;2024-03-08T07:46:09;25.83;;;13.90;;
16837;SDS011;19510;54.486;9.046;2024-03-08T07:48:35;25.60;;;13.30;;
16837;SDS011;19510;54.486;9.046;2024-03-08T07:51:04;25.67;;;12.23;;
16837;SDS011;19510;54.486;9.046;2024-03-08T07:53:30;20.70;;;11.27;;
16837;SDS011;19510;54.486;9.046;2024-03-08T07:55:56;22.70;;;11.43;;
16837;SDS011;19510;54.486;9.046;2024-03-08T07:58:22;22.70;;;11.73;;
16837;SDS011;19510;54.486;9.046;2024-03-08T08:00:48;22.83;;;11.70;;
16837;SDS011;19510;54.486;9.046;2024-03-08T08:03:14;21.43;;;11.50;;
16837;SDS011;19510;54.486;9.046;2024-03-08T08:05:47;22.50;;;11.20;;
16837;SDS011;19510;54.486;9.046;2024-03-08T08:08:14;22.20;;;11.50;;
16837;SDS011;19510;54.486;9.046;2024-03-08T08:10:40;17.83;;;10.37;;
16837;SDS011;19510;54.486;9.046;2024-03-08T08:13:05;23.23;;;11.63;;
16837;SDS011;19510;54.486;9.046;2024-03-08T08:15:31;18.00;;;10.70;;
16837;SDS011;19510;54.486;9.046;2024-03-08T08:18:00;22.03;;;10.90;;
16837;SDS011;19510;54.486;9.046;2024-03-08T08:20:27;18.37;;;9.90;;
16837;SDS011;19510;54.486;9.046;2024-03-08T08:22:54;21.40;;;10.93;;
16837;SDS011;19510;54.486;9.046;2024-03-08T08:25:20;19.30;;;9.97;;
16837;SDS011;19510;54.486;9.046;2024-03-08T08:27:49;23.27;;;11.83;;
16837;SDS011;19510;54.486;9.046;2024-03-08T08:30:15;27.70;;;12.13;;
16837;SDS011;19510;54.486;9.046;2024-03-08T08:32:40;23.17;;;10.87;;
16837;SDS011;19510;54.486;9.046;2024-03-08T08:35:09;27.63;;;10.40;;
16837;SDS011;19510;54.486;9.046;2024-03-08T08:37:41;20.10;;;10.73;;
16837;SDS011;19510;54.486;9.046;2024-03-08T08:40:07;20.73;;;10.37;;
16837;SDS011;19510;54.486;9.046;2024-03-08T08:42:39;18.40;;;9.90;;
16837;SDS011;19510;54.486;9.046;2024-03-08T08:45:06;18.77;;;9.80;;
16837;SDS011;19510;54.486;9.046;2024-03-08T08:47:35;19.77;;;10.53;;
16837;SDS011;19510;54.486;9.046;2024-03-08T08:50:02;19.67;;;10.73;;
16837;SDS011;19510;54.486;9.046;2024-03-08T08:52:30;18.80;;;10.57;;
16837;SDS011;19510;54.486;9.046;2024-03-08T08:54:59;19.43;;;10.13;;
16837;SDS011;19510;54.486;9.046;2024-03-08T08:57:25;17.73;;;9.97;;
16837;SDS011;19510;54.486;9.046;2024-03-08T08:59:52;22.47;;;10.80;;
16837;SDS011;19510;54.486;9.046;2024-03-08T09:02:17;20.33;;;10.43;;
16837;SDS011;19510;54.486;9.046;2024-03-08T09:04:46;22.33;;;10.30;;
16837;SDS011;19510;54.486;9.046;2024-03-08T09:07:15;18.23;;;10.23;;
16837;SDS011;19510;54.486;9.046;2024-03-08T09:09:43;21.93;;;11.20;;
16837;SDS011;19510;54.486;9.046;2024-03-08T09:12:10;21.47;;;10.83;;
16837;SDS011;19510;54.486;9.046;2024-03-08T09:14:41;22.23;;;10.83;;
16837;SDS011;19510;54.486;9.046;2024-03-08T09:17:08;17.80;;;10.00;;
16837;SDS011;19510;54.486;9.046;2024-03-08T09:19:34;20.33;;;10.50;;
16837;SDS011;19510;54.486;9.046;2024-03-08T09:22:00;18.60;;;10.57;;
16837;SDS011;19510;54.486;9.046;2024-03-08T09:24:25;22.30;;;9.60;;
16837;SDS011;19510;54.486;9.046;2024-03-08T09:26:51;20.33;;;10.47;;
16837;SDS011;19510;54.486;9.046;2024-03-08T09:29:17;17.67;;;9.73;;
16837;SDS011;19510;54.486;9.046;2024-03-08T09:31:43;23.53;;;13.13;;
16837;SDS011;19510;54.486;9.046;2024-03-08T09:34:11;20.50;;;11.57;;
16837;SDS011;19510;54.486;9.046;2024-03-08T09:36:36;22.23;;;10.63;;
16837;SDS011;19510;54.486;9.046;2024-03-08T09:39:02;24.73;;;11.13;;
16837;SDS011;19510;54.486;9.046;2024-03-08T09:41:28;17.60;;;10.77;;
16837;SDS011;19510;54.486;9.046;2024-03-08T09:43:56;21.43;;;11.07;;
16837;SDS011;19510;54.486;9.046;2024-03-08T09:46:25;20.90;;;10.53;;
16837;SDS011;19510;54.486;9.046;2024-03-08T09:48:52;16.63;;;9.73;;
16837;SDS011;19510;54.486;9.046;2024-03-08T09:51:21;20.17;;;10.07;;
16837;SDS011;19510;54.486;9.046;2024-03-08T09:53:52;18.50;;;10.17;;
16837;SDS011;19510;54.486;9.046;2024-03-08T09:56:18;22.23;;;9.83;;
16837;SDS011;19510;54.486;9.046;2024-03-08T09:58:45;19.33;;;10.70;;
16837;SDS011;19510;54.486;9.046;2024-03-08T10:01:39;21.63;;;9.60;;
16837;SDS011;19510;54.486;9.046;2024-03-08T10:04:06;22.37;;;10.67;;
16837;SDS011;19510;54.486;9.046;2024-03-08T10:06:32;19.80;;;10.20;;
16837;SDS011;19510;54.486;9.046;2024-03-08T10:09:00;19.13;;;10.17;;
16837;SDS011;19510;54.486;9.046;2024-03-08T10:13:55;17.77;;;10.27;;
16837;SDS011;19510;54.486;9.046;2024-03-08T10:16:21;20.70;;;11.17;;
16837;SDS011;19510;54.486;9.046;2024-03-08T10:18:49;23.10;;;11.40;;
16837;SDS011;19510;54.486;9.046;2024-03-08T10:21:15;21.83;;;11.30;;
16837;SDS011;19510;54.486;9.046;2024-03-08T10:23:42;18.80;;;10.97;;
16837;SDS011;19510;54.486;9.046;2024-03-08T10:28:44;19.83;;;10.90;;
16837;SDS011;19510;54.486;9.046;2024-03-08T10:31:15;24.53;;;11.53;;
16837;SDS011;19510;54.486;9.046;2024-03-08T10:33:42;21.73;;;11.77;;
16837;SDS011;19510;54.486;9.046;2024-03-08T10:36:12;18.47;;;10.93;;
16837;SDS011;19510;54.486;9.046;2024-03-08T10:38:40;20.17;;;11.13;;
16837;SDS011;19510;54.486;9.046;2024-03-08T10:41:07;20.87;;;10.93;;
16837;SDS011;19510;54.486;9.046;2024-03-08T10:46:45;21.10;;;10.70;;
16837;SDS011;19510;54.486;9.046;2024-03-08T10:49:30;17.50;;;9.83;;
16837;SDS011;19510;54.486;9.046;2024-03-08T10:52:02;18.37;;;10.30;;
16837;SDS011;19510;54.486;9.046;2024-03-08T10:54:30;20.83;;;10.73;;
16837;SDS011;19510;54.486;9.046;2024-03-08T10:56:59;21.00;;;10.03;;
16837;SDS011;19510;54.486;9.046;2024-03-08T10:59:26;19.83;;;11.03;;
16837;SDS011;19510;54.486;9.046;2024-03-08T11:01:53;21.67;;;11.53;;
16837;SDS011;19510;54.486;9.046;2024-03-08T11:04:19;20.90;;;10.50;;
16837;SDS011;19510;54.486;9.046;2024-03-08T11:06:48;25.43;;;11.07;;
16837;SDS011;19510;54.486;9.046;2024-03-08T11:09:36;21.47;;;10.33;;
16837;SDS011;19510;54.486;9.046;2024-03-08T11:14:49;21.90;;;11.13;;
16837;SDS011;19510;54.486;9.046;2024-03-08T11:18:00;20.43;;;11.07;;
16837;SDS011;19510;54.486;9.046;2024-03-08T11:20:14;21.43;;;10.67;;
16837;SDS011;19510;54.486;9.046;2024-03-08T11:30:45;18.17;;;9.93;;
16837;SDS011;19510;54.486;9.046;2024-03-08T11:33:16;21.43;;;11.63;;
16837;SDS011;19510;54.486;9.046;2024-03-08T11:35:43;16.23;;;9.57;;
16837;SDS011;19510;54.486;9.046;2024-03-08T11:38:11;20.77;;;10.07;;
16837;SDS011;19510;54.486;9.046;2024-03-08T11:40:41;19.23;;;9.73;;
16837;SDS011;19510;54.486;9.046;2024-03-08T11:43:07;22.63;;;11.17;;
16837;SDS011;19510;54.486;9.046;2024-03-08T11:45:36;17.87;;;10.23;;
16837;SDS011;19510;54.486;9.046;2024-03-08T11:48:03;18.57;;;10.43;;
16837;SDS011;19510;54.486;9.046;2024-03-08T11:50:30;17.73;;;10.30;;
16837;SDS011;19510;54.486;9.046;2024-03-08T11:53:01;21.08;;;10.63;;
16837;SDS011;19510;54.486;9.046;2024-03-08T11:55:30;22.37;;;11.83;;
16837;SDS011;19510;54.486;9.046;2024-03-08T11:58:02;19.67;;;9.93;;
16837;SDS011;19510;54.486;9.046;2024-03-08T12:00:28;19.77;;;10.20;;
16837;SDS011;19510;54.486;9.046;2024-03-08T12:03:07;22.30;;;10.70;;
16837;SDS011;19510;54.486;9.046;2024-03-08T12:05:37;20.83;;;11.63;;
16837;SDS011;19510;54.486;9.046;2024-03-08T12:08:03;19.27;;;11.27;;
16837;SDS011;19510;54.486;9.046;2024-03-08T12:10:34;17.83;;;10.90;;
16837;SDS011;19510;54.486;9.046;2024-03-08T12:13:06;21.10;;;11.60;;
16837;SDS011;19510;54.486;9.046;2024-03-08T12:15:37;19.75;;;11.88;;
16837;SDS011;19510;54.486;9.046;2024-03-08T12:18:04;22.90;;;11.30;;
16837;SDS011;19510;54.486;9.046;2024-03-08T12:20:30;20.75;;;10.75;;
16837;SDS011;19510;54.486;9.046;2024-03-08T12:22:56;21.10;;;11.43;;
16837;SDS011;19510;54.486;9.046;2024-03-08T12:25:27;19.52;;;10.80;;
16837;SDS011;19510;54.486;9.046;2024-03-08T12:28:08;20.50;;;10.65;;
16837;SDS011;19510;54.486;9.046;2024-03-08T12:30:50;25.90;;;11.60;;
16837;SDS011;19510;54.486;9.046;2024-03-08T12:33:19;25.83;;;11.82;;
16837;SDS011;19510;54.486;9.046;2024-03-08T12:35:51;21.45;;;11.60;;
16837;SDS011;19510;54.486;9.046;2024-03-08T12:38:23;21.73;;;11.57;;
16837;SDS011;19510;54.486;9.046;2024-03-08T12:40:56;21.27;;;11.50;;
16837;SDS011;19510;54.486;9.046;2024-03-08T12:43:25;22.05;;;11.50;;
16837;SDS011;19510;54.486;9.046;2024-03-08T12:45:50;18.63;;;10.50;;
16837;SDS011;19510;54.486;9.046;2024-03-08T12:48:17;21.20;;;11.43;;
16837;SDS011;19510;54.486;9.046;2024-03-08T12:50:45;22.75;;;12.20;;
16837;SDS011;19510;54.486;9.046;2024-03-08T12:53:13;21.52;;;11.70;;
16837;SDS011;19510;54.486;9.046;2024-03-08T12:55:39;22.25;;;11.50;;
16837;SDS011;19510;54.486;9.046;2024-03-08T12:58:05;22.77;;;11.80;;
16837;SDS011;19510;54.486;9.046;2024-03-08T13:00:32;21.33;;;11.85;;
16837;SDS011;19510;54.486;9.046;2024-03-08T13:03:01;21.85;;;11.68;;
16837;SDS011;19510;54.486;9.046;2024-03-08T13:05:27;19.85;;;11.27;;
16837;SDS011;19510;54.486;9.046;2024-03-08T13:07:55;23.67;;;12.13;;
16837;SDS011;19510;54.486;9.046;2024-03-08T13:10:22;21.85;;;11.80;;
16837;SDS011;19510;54.486;9.046;2024-03-08T13:12:47;22.77;;;11.65;;
16837;SDS011;19510;54.486;9.046;2024-03-08T13:15:13;22.05;;;11.45;;
16837;SDS011;19510;54.486;9.046;2024-03-08T13:17:48;20.63;;;10.88;;
16837;SDS011;19510;54.486;9.046;2024-03-08T13:20:14;24.55;;;12.77;;
16837;SDS011;19510;54.486;9.046;2024-03-08T13:22:45;24.02;;;12.73;;
16837;SDS011;19510;54.486;9.046;2024-03-08T13:25:12;25.00;;;12.15;;
16837;SDS011;19510;54.486;9.046;2024-03-08T13:27:41;21.60;;;12.18;;
16837;SDS011;19510;54.486;9.046;2024-03-08T13:30:10;22.25;;;11.55;;
16837;SDS011;19510;54.486;9.046;2024-03-08T13:32:43;18.75;;;11.30;;
16837;SDS011;19510;54.486;9.046;2024-03-08T13:35:09;22.73;;;11.80;;
16837;SDS011;19510;54.486;9.046;2024-03-08T13:37:42;23.83;;;12.00;;
16837;SDS011;19510;54.486;9.046;2024-03-08T13:40:09;26.10;;;11.55;;
16837;SDS011;19510;54.486;9.046;2024-03-08T13:42:43;18.60;;;10.93;;
16837;SDS011;19510;54.486;9.046;2024-03-08T13:45:10;23.55;;;12.43;;
16837;SDS011;19510;54.486;9.046;2024-03-08T13:47:38;21.80;;;11.63;;
16837;SDS011;19510;54.486;9.046;2024-03-08T13:50:10;23.05;;;12.27;;
16837;SDS011;19510;54.486;9.046;2024-03-08T13:52:46;24.13;;;12.27;;
16837;SDS011;19510;54.486;9.046;2024-03-08T13:55:17;22.20;;;11.35;;
16837;SDS011;19510;54.486;9.046;2024-03-08T13:57:43;23.67;;;12.88;;
16837;SDS011;19510;54.486;9.046;2024-03-08T14:00:10;20.70;;;11.25;;
16837;SDS011;19510;54.486;9.046;2024-03-08T14:02:37;24.10;;;12.00;;
16837;SDS011;19510;54.486;9.046;2024-03-08T14:05:06;23.85;;;11.07;;
16837;SDS011;19510;54.486;9.046;2024-03-08T14:07:34;23.63;;;12.98;;
16837;SDS011;19510;54.486;9.046;2024-03-08T14:10:02;20.50;;;11.50;;
16837;SDS011;19510;54.486;9.046;2024-03-08T14:12:29;19.85;;;11.02;;
16837;SDS011;19510;54.486;9.046;2024-03-08T14:14:56;19.85;;;11.00;;
16837;SDS011;19510;54.486;9.046;2024-03-08T14:17:24;23.45;;;11.63;;
16837;SDS011;19510;54.486;9.046;2024-03-08T14:19:52;19.17;;;10.65;;
16837;SDS011;19510;54.486;9.046;2024-03-08T14:22:21;23.13;;;11.90;;
16837;SDS011;19510;54.486;9.046;2024-03-08T14:24:46;21.27;;;11.07;;
16837;SDS011;19510;54.486;9.046;2024-03-08T14:27:12;23.25;;;12.15;;
16837;SDS011;19510;54.486;9.046;2024-03-08T14:29:39;22.85;;;11.65;;
16837;SDS011;19510;54.486;9.046;2024-03-08T14:32:06;21.17;;;10.60;;
16837;SDS011;19510;54.486;9.046;2024-03-08T14:34:35;22.52;;;11.32;;
16837;SDS011;19510;54.486;9.046;2024-03-08T14:37:01;21.83;;;12.00;;
16837;SDS011;19510;54.486;9.046;2024-03-08T14:39:31;21.63;;;11.82;;
16837;SDS011;19510;54.486;9.046;2024-03-08T14:41:58;20.50;;;11.30;;
16837;SDS011;19510;54.486;9.046;2024-03-08T14:44:25;22.05;;;10.75;;
16837;SDS011;19510;54.486;9.046;2024-03-08T14:46:55;20.00;;;10.52;;
16837;SDS011;19510;54.486;9.046;2024-03-08T14:49:21;19.80;;;10.18;;
16837;SDS011;19510;54.486;9.046;2024-03-08T14:51:47;17.52;;;10.45;;
16837;SDS011;19510;54.486;9.046;2024-03-08T14:54:13;19.23;;;11.07;;
16837;SDS011;19510;54.486;9.046;2024-03-08T14:56:39;22.13;;;11.33;;
16837;SDS011;19510;54.486;9.046;2024-03-08T14:59:08;23.23;;;10.67;;
16837;SDS011;19510;54.486;9.046;2024-03-08T15:01:34;21.27;;;10.95;;
16837;SDS011;19510;54.486;9.046;2024-03-08T15:04:02;23.47;;;11.03;;
16837;SDS011;19510;54.486;9.046;2024-03-08T15:06:42;22.10;;;11.20;;
16837;SDS011;19510;54.486;9.046;2024-03-08T15:09:10;23.40;;;11.50;;
16837;SDS011;19510;54.486;9.046;2024-03-08T15:11:44;16.70;;;9.33;;
16837;SDS011;19510;54.486;9.046;2024-03-08T15:14:10;24.60;;;11.57;;
16837;SDS011;19510;54.486;9.046;2024-03-08T15:16:37;20.03;;;11.10;;
16837;SDS011;19510;54.486;9.046;2024-03-08T15:19:07;22.20;;;11.43;;
16837;SDS011;19510;54.486;9.046;2024-03-08T15:21:34;18.80;;;10.83;;
16837;SDS011;19510;54.486;9.046;2024-03-08T15:24:01;20.70;;;11.03;;
16837;SDS011;19510;54.486;9.046;2024-03-08T15:26:35;28.07;;;11.10;;
16837;SDS011;19510;54.486;9.046;2024-03-08T15:29:01;25.20;;;11.50;;
16837;SDS011;19510;54.486;9.046;2024-03-08T15:31:26;19.30;;;11.33;;
16837;SDS011;19510;54.486;9.046;2024-03-08T15:33:52;19.57;;;9.70;;
16837;SDS011;19510;54.486;9.046;2024-03-08T15:36:26;21.87;;;10.97;;
16837;SDS011;19510;54.486;9.046;2024-03-08T15:38:55;21.07;;;11.63;;
16837;SDS011;19510;54.486;9.046;2024-03-08T15:41:25;21.93;;;10.87;;
16837;SDS011;19510;54.486;9.046;2024-03-08T15:43:54;21.17;;;9.93;;
16837;SDS011;19510;54.486;9.046;2024-03-08T15:46:24;21.77;;;10.60;;
16837;SDS011;19510;54.486;9.046;2024-03-08T15:48:50;23.03;;;10.60;;
16837;SDS011;19510;54.486;9.046;2024-03-08T15:51:16;23.30;;;10.83;;
16837;SDS011;19510;54.486;9.046;2024-03-08T15:53:44;21.63;;;11.37;;
16837;SDS011;19510;54.486;9.046;2024-03-08T15:56:21;21.80;;;11.03;;
16837;SDS011;19510;54.486;9.046;2024-03-08T15:58:48;20.73;;;9.73;;
16837;SDS011;19510;54.486;9.046;2024-03-08T16:01:16;21.90;;;11.07;;
16837;SDS011;19510;54.486;9.046;2024-03-08T16:03:44;20.20;;;11.30;;
16837;SDS011;19510;54.486;9.046;2024-03-08T16:06:10;23.10;;;10.60;;
16837;SDS011;19510;54.486;9.046;2024-03-08T16:08:36;21.77;;;10.97;;
16837;SDS011;19510;54.486;9.046;2024-03-08T16:11:04;20.37;;;10.93;;
16837;SDS011;19510;54.486;9.046;2024-03-08T16:13:33;22.37;;;10.43;;
16837;SDS011;19510;54.486;9.046;2024-03-08T16:16:06;21.83;;;10.73;;
16837;SDS011;19510;54.486;9.046;2024-03-08T16:18:32;19.70;;;10.00;;
16837;SDS011;19510;54.486;9.046;2024-03-08T16:21:00;20.20;;;10.53;;
16837;SDS011;19510;54.486;9.046;2024-03-08T16:23:28;16.60;;;9.37;;
16837;SDS011;19510;54.486;9.046;2024-03-08T16:25:55;29.00;;;13.87;;
16837;SDS011;19510;54.486;9.046;2024-03-08T16:28:20;20.87;;;10.60;;
16837;SDS011;19510;54.486;9.046;2024-03-08T16:30:51;18.67;;;10.13;;
16837;SDS011;19510;54.486;9.046;2024-03-08T16:33:19;19.53;;;10.17;;
16837;SDS011;19510;54.486;9.046;2024-03-08T16:35:47;19.10;;;9.10;;
16837;SDS011;19510;54.486;9.046;2024-03-08T16:38:16;19.50;;;9.97;;
16837;SDS011;19510;54.486;9.046;2024-03-08T16:40:43;20.20;;;10.27;;
16837;SDS011;19510;54.486;9.046;2024-03-08T16:43:10;20.73;;;10.23;;